createdAt,value
2018-09-15T03:00:59.920Z,2.30
2018-09-15T03:02:00.844Z,5.60
2018-09-15T03:05:00.678Z,5.90
2018-09-15T03:05:55.904Z,6.20
2018-09-15T03:09:29.490Z,5.60
2018-09-15T03:10:34.843Z,6.40
2018-09-15T03:11:30.558Z,6.30
2018-09-15T03:19:38.159Z,6.50
2018-09-15T03:20:36.086Z,6.70
2018-09-15T03:21:35.518Z,6.60
2018-09-15T03:23:53.253Z,6.70
2018-09-15T03:24:10.638Z,6.30
2018-09-15T03:26:08.461Z,6.00
2018-09-15T03:27:07.047Z,6.30
2018-09-15T03:28:07.472Z,6.40
2018-09-15T03:29:07.418Z,6.30
2018-09-15T03:32:09.041Z,6.10
2018-09-15T03:33:10.166Z,6.10
2018-09-15T03:39:08.679Z,6.30
2018-09-15T03:39:32.521Z,6.30
2018-09-15T03:40:10.501Z,6.20
2018-09-15T03:41:11.189Z,6.00
2018-09-15T03:42:17.162Z,6.20
2018-09-15T03:48:02.588Z,7.20
2018-09-15T03:49:05.246Z,7.40
2018-09-15T03:50:04.124Z,7.60
2018-09-15T03:51:04.712Z,7.30
2018-09-15T03:52:04.227Z,7.00
2018-09-15T03:53:09.158Z,7.10
2018-09-15T03:55:12.411Z,7.40
2018-09-15T03:58:13.118Z,7.30
2018-09-15T03:59:06.970Z,6.90
2018-09-15T04:02:07.490Z,7.30
2018-09-15T04:03:09.201Z,7.50
2018-09-15T04:04:14.176Z,7.30
2018-09-15T04:05:09.560Z,7.00
2018-09-15T04:07:08.095Z,7.60
2018-09-15T04:09:41.407Z,7.20
2018-09-15T04:10:42.254Z,6.70
2018-09-15T04:12:59.920Z,7.30
2018-09-15T04:13:43.340Z,7.40
2018-09-15T04:14:41.843Z,7.50
2018-09-15T04:15:42.190Z,7.80
2018-09-15T04:16:41.385Z,7.50
2018-09-15T04:17:40.914Z,7.40
2018-09-15T04:18:38.463Z,7.90
2018-09-15T04:19:38.617Z,7.20
2018-09-15T04:20:38.838Z,7.10
2018-09-15T04:21:39.030Z,7.10
2018-09-15T04:22:39.573Z,7.00
2018-09-15T04:23:39.734Z,7.40
2018-09-15T04:24:39.790Z,7.80
2018-09-15T04:25:39.612Z,7.40
2018-09-15T04:26:39.917Z,6.80
2018-09-15T04:27:40.318Z,7.00
2018-09-15T04:28:40.233Z,7.10
2018-09-15T04:29:40.372Z,7.00
2018-09-15T04:30:40.576Z,6.80
2018-09-15T04:31:40.651Z,6.80
2018-09-15T04:32:40.734Z,6.90
2018-09-15T04:33:40.802Z,7.20
2018-09-15T04:34:40.988Z,7.00
2018-09-15T04:35:41.130Z,7.30
2018-09-15T04:36:41.242Z,6.80
2018-09-15T04:37:41.624Z,7.30
2018-09-15T04:38:41.433Z,7.00
2018-09-15T04:39:41.664Z,7.00
2018-09-15T04:40:42.044Z,7.10
2018-09-15T04:41:42.068Z,7.40
2018-09-15T04:42:42.303Z,7.00
2018-09-15T04:43:42.510Z,7.10
2018-09-15T04:44:42.624Z,7.40
2018-09-15T04:45:42.844Z,6.90
2018-09-15T04:46:43.497Z,7.30
2018-09-15T04:47:43.080Z,7.20
2018-09-15T04:48:43.400Z,7.00
2018-09-15T04:49:43.615Z,7.20
2018-09-15T04:50:43.772Z,6.80
2018-09-15T04:51:44.426Z,7.30
2018-09-15T04:52:44.059Z,7.00
2018-09-15T04:53:44.258Z,7.40
2018-09-15T04:54:44.453Z,6.80
2018-09-15T04:55:44.703Z,7.00
2018-09-15T04:56:44.741Z,7.20
2018-09-15T04:57:44.948Z,6.80
2018-09-15T04:58:45.367Z,6.70
2018-09-15T04:59:45.486Z,6.50
2018-09-15T05:00:45.819Z,6.70
2018-09-15T05:01:46.552Z,6.90
2018-09-15T05:02:45.907Z,6.90
2018-09-15T05:03:46.188Z,6.90
2018-09-15T05:04:46.562Z,6.60
2018-09-15T05:05:46.540Z,6.60
2018-09-15T05:06:46.782Z,6.70
2018-09-15T05:07:46.622Z,6.10
2018-09-15T05:08:47.359Z,6.80
2018-09-15T05:09:47.239Z,6.60
2018-09-15T05:10:48.516Z,7.10
2018-09-15T05:11:47.453Z,6.70
2018-09-15T05:12:47.780Z,6.90
2018-09-15T05:13:48.844Z,6.20
2018-09-15T05:14:48.093Z,6.70
2018-09-15T05:15:48.085Z,6.50
2018-09-15T05:16:48.453Z,6.60
2018-09-15T05:17:48.635Z,6.90
2018-09-15T05:18:48.929Z,6.10
2018-09-15T05:19:48.877Z,6.50
2018-09-15T05:20:48.803Z,6.60
2018-09-15T05:21:48.917Z,6.50
2018-09-15T05:22:49.205Z,6.70
2018-09-15T05:23:49.759Z,5.90
2018-09-15T05:24:49.738Z,6.20
2018-09-15T05:25:50.088Z,6.40
2018-09-15T05:28:45.961Z,6.10
2018-09-15T05:30:46.980Z,6.40
2018-09-15T05:31:56.045Z,6.50
2018-09-15T05:32:53.418Z,6.10
2018-09-15T05:35:50.410Z,6.50
2018-09-15T05:36:49.645Z,6.40
2018-09-15T05:38:25.477Z,6.00
2018-09-15T05:38:50.068Z,6.30
2018-09-15T05:39:49.856Z,6.70
2018-09-15T05:40:58.580Z,6.60
2018-09-15T05:41:52.107Z,6.40
2018-09-15T05:42:53.976Z,6.40
2018-09-15T05:43:50.303Z,6.30
2018-09-15T05:45:01.485Z,6.40
2018-09-15T05:45:50.084Z,6.20
2018-09-15T05:46:54.243Z,6.10
2018-09-15T05:47:53.240Z,6.60
2018-09-15T05:48:51.218Z,6.40
2018-09-15T05:50:01.524Z,6.50
2018-09-15T05:50:51.674Z,6.40
2018-09-15T05:52:52.259Z,6.40
2018-09-15T05:53:57.146Z,6.00
2018-09-15T05:55:13.235Z,6.20
2018-09-15T05:55:52.217Z,6.20
2018-09-15T05:58:00.820Z,6.00
2018-09-15T05:58:53.913Z,5.60
2018-09-15T06:00:56.112Z,5.90
2018-09-15T06:02:00.919Z,6.10
2018-09-15T06:03:02.044Z,6.10
2018-09-15T06:03:53.485Z,6.50
2018-09-15T06:04:56.654Z,5.80
2018-09-15T06:05:55.164Z,6.40
2018-09-15T06:08:37.844Z,5.80
2018-09-15T06:09:38.477Z,6.20
2018-09-15T06:10:51.734Z,6.00
2018-09-15T06:11:38.250Z,5.80
2018-09-15T06:12:38.430Z,5.60
2018-09-15T06:13:39.182Z,6.20
2018-09-15T06:16:50.452Z,5.80
2018-09-15T06:17:48.606Z,5.40
2018-09-15T06:18:57.467Z,6.30
2018-09-15T06:19:56.132Z,5.80
2018-09-15T06:20:50.839Z,5.80
2018-09-15T06:26:59.375Z,6.00
2018-09-15T06:27:58.593Z,6.00
2018-09-15T06:28:58.194Z,5.80
2018-09-15T06:29:58.139Z,5.90
2018-09-15T06:30:59.440Z,5.60
2018-09-15T06:31:58.051Z,5.60
2018-09-15T06:45:53.621Z,5.20
2018-09-15T06:46:36.763Z,5.60
2018-09-15T06:47:33.121Z,5.70
2018-09-15T06:48:31.595Z,5.00
2018-09-15T06:49:30.159Z,5.30
2018-09-15T06:50:29.288Z,5.20
2018-09-15T06:51:33.739Z,5.20
2018-09-15T06:52:50.827Z,4.80
2018-09-15T06:53:29.347Z,4.90
2018-09-15T06:54:29.506Z,5.30
2018-09-15T06:55:33.794Z,5.00
2018-09-15T07:25:08.078Z,6.30
2018-09-15T07:26:42.672Z,5.80
2018-09-15T07:27:42.667Z,6.10
2018-09-15T07:28:44.004Z,5.90
2018-09-15T07:29:42.925Z,6.10
2018-09-15T07:30:47.953Z,5.60
2018-09-15T07:33:27.960Z,5.80
2018-09-15T07:34:30.182Z,5.90
2018-09-15T07:40:12.907Z,5.70
2018-09-15T07:45:34.280Z,5.50
2018-09-15T07:46:36.247Z,5.70
2018-09-15T07:52:51.783Z,5.80
2018-09-15T07:54:16.655Z,6.50
2018-09-15T08:22:58.506Z,4.80
2018-09-15T08:23:33.026Z,4.50
2018-09-15T08:24:42.505Z,4.50
2018-09-15T08:25:59.580Z,4.40
2018-09-15T08:39:42.551Z,3.30
2018-09-15T08:41:45.898Z,2.80
2018-09-15T08:42:43.771Z,2.80
2018-09-15T08:43:43.015Z,2.30
2018-09-15T08:44:43.970Z,2.90
2018-09-15T08:48:17.615Z,2.30
2018-09-15T08:49:18.093Z,2.10
2018-09-15T08:50:18.774Z,2.40
2018-09-15T08:51:18.234Z,2.20
2018-09-15T08:52:19.325Z,1.90
2018-09-15T08:53:20.292Z,2.10
2018-09-15T08:54:21.553Z,2.00
2018-09-15T08:59:19.891Z,1.80
2018-09-15T09:00:18.286Z,1.80
2018-09-15T09:02:18.071Z,1.90
2018-09-15T09:03:15.151Z,1.80
2018-09-15T09:04:15.288Z,1.90
2018-09-15T09:05:15.375Z,1.60
2018-09-15T09:06:15.961Z,1.70
2018-09-15T09:07:15.697Z,1.40
2018-09-15T09:08:15.938Z,1.60
2018-09-15T09:09:16.864Z,1.70
2018-09-15T09:10:16.241Z,1.60
2018-09-15T09:11:17.166Z,1.40
2018-09-15T09:12:17.184Z,1.70
2018-09-15T09:13:18.930Z,1.40
2018-09-15T09:15:54.993Z,2.00
2018-09-15T09:17:52.470Z,1.70
2018-09-15T09:18:50.919Z,1.80
2018-09-15T09:19:51.055Z,1.60
2018-09-15T09:20:51.220Z,1.40
2018-09-15T09:21:51.419Z,1.80
2018-09-15T09:22:51.500Z,1.70
2018-09-15T09:23:51.806Z,1.50
2018-09-15T09:24:51.909Z,1.80
2018-09-15T09:25:52.157Z,1.80
2018-09-15T09:26:52.335Z,1.90
2018-09-15T09:27:52.426Z,1.70
2018-09-15T09:28:52.653Z,1.70
2018-09-15T09:29:52.834Z,1.50
2018-09-15T09:30:52.909Z,1.40
2018-09-15T09:31:53.150Z,1.30
2018-09-15T09:32:53.475Z,1.40
2018-09-15T09:33:53.588Z,1.30
2018-09-15T09:34:54.013Z,1.60
2018-09-15T09:35:54.352Z,1.40
2018-09-15T09:36:56.755Z,1.20
2018-09-15T09:40:18.215Z,1.40
2018-09-15T09:45:25.718Z,1.50
2018-09-15T09:45:48.974Z,1.60
2018-09-15T09:46:55.365Z,1.40
2018-09-15T09:54:00.347Z,1.40
2018-09-15T09:55:03.214Z,1.50
2018-09-15T09:58:05.873Z,1.30
2018-09-15T09:59:06.245Z,1.20
2018-09-15T10:03:09.556Z,1.30
2018-09-15T10:04:12.100Z,1.40
2018-09-15T10:06:18.471Z,1.20
2018-09-15T10:07:55.756Z,1.20
2018-09-15T10:08:07.874Z,1.10
2018-09-15T10:09:09.788Z,1.30
2018-09-15T10:10:05.321Z,1.20
2018-09-15T10:11:05.421Z,1.30
2018-09-15T10:12:05.852Z,1.30
2018-09-15T10:13:05.976Z,1.30
2018-09-15T10:14:06.095Z,1.30
2018-09-15T10:15:06.225Z,1.20
2018-09-15T10:16:06.482Z,1.40
2018-09-15T10:17:06.524Z,1.30
2018-09-15T10:18:09.787Z,1.30
2018-09-15T10:19:06.915Z,1.20
2018-09-15T10:20:07.137Z,1.30
2018-09-15T10:21:07.426Z,1.40
2018-09-15T10:22:07.574Z,1.30
2018-09-15T10:23:07.858Z,1.40
2018-09-15T10:24:08.673Z,1.40
2018-09-15T10:27:37.835Z,1.20
2018-09-15T10:48:40.424Z,1.10
2018-09-15T10:49:12.126Z,1.00
2018-09-15T10:50:08.404Z,1.00
2018-09-15T10:51:08.469Z,0.90
2018-09-15T10:52:08.859Z,1.00
2018-09-15T10:53:08.835Z,1.20
2018-09-15T10:54:09.125Z,1.20
2018-09-15T10:55:09.169Z,1.10
2018-09-15T10:56:09.417Z,1.00
2018-09-15T10:57:10.703Z,1.10
2018-09-15T10:58:09.801Z,1.00
2018-09-15T10:59:09.951Z,1.10
2018-09-15T11:00:10.323Z,1.10
2018-09-15T11:01:10.376Z,1.20
2018-09-15T11:02:10.881Z,1.10
2018-09-15T11:03:10.761Z,1.10
2018-09-15T11:04:10.997Z,1.10
2018-09-15T11:05:11.083Z,1.20
2018-09-15T11:06:11.286Z,1.10
2018-09-15T11:07:11.437Z,1.20
2018-09-15T11:08:11.707Z,1.10
2018-09-15T11:09:11.927Z,0.90
2018-09-15T11:10:12.105Z,1.00
2018-09-15T11:11:12.257Z,1.00
2018-09-15T11:12:12.402Z,1.00
2018-09-15T11:13:12.594Z,1.10
2018-09-15T11:14:12.686Z,1.10
2018-09-15T11:15:13.103Z,1.10
2018-09-15T11:16:13.107Z,1.30
2018-09-15T11:17:13.306Z,1.40
2018-09-15T11:18:13.434Z,1.30
2018-09-15T11:19:13.657Z,1.30
2018-09-15T11:20:13.929Z,1.10
2018-09-15T11:21:14.191Z,1.20
2018-09-15T11:22:14.378Z,1.20
2018-09-15T11:23:14.917Z,1.20
2018-09-15T11:24:14.689Z,1.10
2018-09-15T11:25:14.868Z,1.00
2018-09-15T11:26:15.131Z,1.10
2018-09-15T11:27:15.129Z,1.20
2018-09-15T11:28:15.644Z,1.10
2018-09-15T11:29:15.881Z,1.20
2018-09-15T11:30:16.197Z,1.00
2018-09-15T11:31:16.052Z,1.30
2018-09-15T11:32:16.193Z,1.20
2018-09-15T11:33:17.044Z,1.10
2018-09-15T11:34:16.487Z,1.10
2018-09-15T11:35:16.596Z,1.20
2018-09-15T11:36:18.032Z,1.30
2018-09-15T11:37:17.304Z,1.20
2018-09-15T11:38:17.240Z,1.10
2018-09-15T11:39:17.329Z,1.10
2018-09-15T11:40:17.507Z,1.20
2018-09-15T11:41:17.802Z,1.40
2018-09-15T11:42:17.903Z,1.40
2018-09-15T11:43:18.140Z,1.50
2018-09-15T11:44:18.533Z,1.30
2018-09-15T11:45:18.837Z,1.30
2018-09-15T11:46:18.711Z,1.30
2018-09-15T11:47:18.921Z,1.30
2018-09-15T11:48:19.154Z,1.20
2018-09-15T11:49:19.221Z,1.30
2018-09-15T11:50:19.343Z,1.20
2018-09-15T11:51:19.592Z,1.30
2018-09-15T11:52:19.732Z,1.20
2018-09-15T11:53:19.968Z,1.40
2018-09-15T11:54:20.018Z,1.40
2018-09-15T11:55:20.239Z,1.30
2018-09-15T11:56:20.399Z,1.40
2018-09-15T11:57:20.562Z,1.10
2018-09-15T11:58:30.558Z,1.20
2018-09-15T12:00:54.896Z,1.30
2018-09-15T12:01:56.834Z,1.60
2018-09-15T12:02:56.313Z,1.40
2018-09-15T12:03:54.580Z,1.30
2018-09-15T12:04:54.727Z,1.30
2018-09-15T12:05:56.632Z,1.30
2018-09-15T12:06:55.124Z,1.30
2018-09-15T12:07:55.340Z,1.30
2018-09-15T12:08:55.524Z,1.50
2018-09-15T12:09:55.668Z,1.50
2018-09-15T12:10:55.687Z,1.40
2018-09-15T12:11:55.931Z,1.40
2018-09-15T12:12:56.361Z,1.40
2018-09-15T12:13:56.375Z,1.20
2018-09-15T12:14:56.460Z,1.30
2018-09-15T12:15:56.631Z,1.40
2018-09-15T12:16:56.943Z,1.60
2018-09-15T12:17:57.005Z,1.40
2018-09-15T12:18:57.447Z,1.50
2018-09-15T12:19:57.397Z,1.40
2018-09-15T12:20:57.476Z,1.30
2018-09-15T12:21:58.081Z,1.80
2018-09-15T12:22:57.900Z,1.50
2018-09-15T12:23:58.066Z,1.40
2018-09-15T12:24:58.882Z,1.30
2018-09-15T12:25:59.442Z,1.60
2018-09-15T12:27:00.457Z,1.70
2018-09-15T12:27:59.013Z,1.30
2018-09-15T12:28:58.903Z,1.50
2018-09-15T12:29:59.275Z,1.60
2018-09-15T12:30:59.496Z,1.80
2018-09-15T12:31:59.864Z,1.40
2018-09-15T12:32:59.751Z,1.40
2018-09-15T12:33:59.788Z,1.60
2018-09-15T12:35:00.188Z,1.40
2018-09-15T12:36:00.102Z,1.90
2018-09-15T12:37:00.507Z,1.60
2018-09-15T12:38:00.544Z,1.40
2018-09-15T12:41:55.253Z,2.00
2018-09-15T12:42:42.740Z,2.30
2018-09-15T12:43:37.932Z,1.90
2018-09-15T12:44:37.118Z,1.60
2018-09-15T12:45:37.325Z,4.10
2018-09-15T12:46:38.227Z,1.50
2018-09-15T12:47:37.894Z,2.20
2018-09-15T12:48:38.105Z,1.70
2018-09-15T12:49:38.088Z,2.90
2018-09-15T12:50:38.222Z,2.60
2018-09-15T12:51:38.812Z,1.60
2018-09-15T12:55:33.561Z,1.80
2018-09-15T12:56:32.033Z,1.80
2018-09-15T12:57:32.378Z,1.40
2018-09-15T12:58:31.718Z,1.60
2018-09-15T12:59:29.733Z,1.50
2018-09-15T13:00:29.764Z,1.50
2018-09-15T13:01:30.531Z,1.40
2018-09-15T13:02:29.987Z,1.70
2018-09-15T13:03:30.131Z,1.60
2018-09-15T13:04:30.270Z,1.60
2018-09-15T13:05:30.680Z,1.50
2018-09-15T13:06:30.898Z,1.70
2018-09-15T13:07:31.424Z,1.50
2018-09-15T13:08:30.988Z,1.80
2018-09-15T13:09:31.148Z,1.50
2018-09-15T13:10:31.434Z,1.80
2018-09-15T13:13:16.184Z,1.70
2018-09-15T13:14:16.503Z,1.80
2018-09-15T13:15:16.612Z,1.80
2018-09-15T13:16:16.907Z,1.50
2018-09-15T13:17:19.028Z,1.80
2018-09-15T13:18:17.515Z,1.60
2018-09-15T13:19:17.244Z,1.60
2018-09-15T13:20:21.832Z,1.80
2018-09-15T13:21:17.670Z,1.70
2018-09-15T13:22:17.541Z,1.60
2018-09-15T13:23:25.004Z,1.60
2018-09-15T13:24:17.369Z,1.70
2018-09-15T13:25:16.189Z,1.60
2018-09-15T13:26:16.296Z,1.60
2018-09-15T13:27:17.878Z,1.60
2018-09-15T13:28:16.690Z,1.50
2018-09-15T13:31:00.821Z,1.60
2018-09-15T13:32:03.008Z,1.60
2018-09-15T13:34:01.678Z,1.70
2018-09-15T13:35:02.222Z,1.70
2018-09-15T13:36:01.431Z,1.50
2018-09-15T13:37:01.741Z,1.50
2018-09-15T13:37:59.913Z,1.60
2018-09-15T13:39:00.069Z,1.50
2018-09-15T13:40:00.138Z,1.50
2018-09-15T13:41:00.490Z,1.60
2018-09-15T13:42:00.686Z,1.30
2018-09-15T13:43:00.689Z,1.40
2018-09-15T13:44:00.897Z,1.40
2018-09-15T13:45:01.122Z,1.60
2018-09-15T13:46:01.278Z,1.30
2018-09-15T13:47:01.729Z,1.30
2018-09-15T13:48:01.527Z,1.30
2018-09-15T13:49:01.714Z,1.50
2018-09-15T13:50:01.963Z,1.40
2018-09-15T13:51:02.001Z,1.30
2018-09-15T13:52:02.193Z,1.40
2018-09-15T13:53:02.445Z,1.40
2018-09-15T13:54:02.659Z,1.40
2018-09-15T13:55:02.875Z,1.40
2018-09-15T13:56:03.003Z,1.20
2018-09-15T13:57:03.215Z,1.30
2018-09-15T13:58:03.302Z,1.30
2018-09-15T13:59:03.529Z,1.60
2018-09-15T14:00:03.639Z,1.40
2018-09-15T14:01:03.856Z,1.30
2018-09-15T14:02:04.002Z,1.40
2018-09-15T14:03:04.176Z,1.50
2018-09-15T14:04:04.319Z,1.50
2018-09-15T14:05:04.674Z,1.40
2018-09-15T14:06:04.727Z,1.50
2018-09-15T14:07:04.866Z,1.50
2018-09-15T14:08:05.133Z,1.40
2018-09-15T14:09:05.311Z,1.60
2018-09-15T14:10:07.043Z,1.30
2018-09-15T14:11:05.768Z,1.40
2018-09-15T14:12:05.824Z,1.20
2018-09-15T14:13:06.130Z,1.30
2018-09-15T14:14:06.167Z,1.50
2018-09-15T14:15:06.316Z,1.50
2018-09-15T14:16:06.599Z,1.50
2018-09-15T14:17:06.717Z,1.60
2018-09-15T14:18:06.872Z,1.30
2018-09-15T14:19:07.101Z,1.20
2018-09-15T14:20:07.275Z,1.30
2018-09-15T14:21:07.438Z,1.20
2018-09-15T14:22:07.662Z,1.30
2018-09-15T14:23:07.830Z,1.10
2018-09-15T14:24:07.903Z,1.40
2018-09-15T14:25:08.062Z,1.40
2018-09-15T14:26:08.271Z,1.40
2018-09-15T14:27:08.485Z,1.40
2018-09-15T14:28:08.634Z,1.30
2018-09-15T14:29:08.839Z,1.30
2018-09-15T14:30:09.007Z,1.30
2018-09-15T14:31:09.169Z,1.30
2018-09-15T14:32:09.279Z,1.40
2018-09-15T14:33:09.415Z,1.20
2018-09-15T14:34:09.554Z,1.40
2018-09-15T14:35:09.740Z,1.20
2018-09-15T14:36:10.009Z,1.30
2018-09-15T14:37:10.181Z,1.40
2018-09-15T14:38:10.314Z,1.30
2018-09-15T14:39:10.558Z,1.40
2018-09-15T14:40:10.736Z,1.30
2018-09-15T14:41:10.900Z,1.20
2018-09-15T14:42:11.093Z,1.30
2018-09-15T14:43:11.233Z,1.20
2018-09-15T14:44:11.416Z,1.40
2018-09-15T14:45:11.646Z,1.40
2018-09-15T14:46:11.819Z,1.40
2018-09-15T14:47:11.925Z,1.20
2018-09-15T14:48:12.169Z,1.30
2018-09-15T14:49:12.422Z,1.30
2018-09-15T14:50:12.474Z,1.40
2018-09-15T14:51:12.626Z,1.30
2018-09-15T14:52:12.882Z,1.20
2018-09-15T14:53:13.015Z,1.30
2018-09-15T14:54:13.141Z,1.20
2018-09-15T14:55:13.357Z,1.20
2018-09-15T14:56:13.614Z,1.20
2018-09-15T14:57:13.686Z,1.30
2018-09-15T14:58:13.940Z,1.40
2018-09-15T14:59:14.020Z,1.20
2018-09-15T15:00:14.238Z,1.20
2018-09-15T15:01:14.389Z,1.20
2018-09-15T15:02:14.601Z,1.30
2018-09-15T15:03:14.681Z,1.30
2018-09-15T15:04:14.881Z,1.40
2018-09-15T15:05:15.098Z,1.30
2018-09-15T15:06:15.238Z,1.30
2018-09-15T15:07:15.489Z,1.30
2018-09-15T15:08:15.638Z,1.20
2018-09-15T15:09:15.741Z,1.20
2018-09-15T15:10:15.971Z,1.20
2018-09-15T15:11:16.207Z,1.20
2018-09-15T15:12:16.362Z,1.20
2018-09-15T15:13:16.525Z,1.20
2018-09-15T15:14:16.680Z,1.30
2018-09-15T15:15:16.982Z,1.20
2018-09-15T15:16:17.044Z,1.30
2018-09-15T15:17:17.260Z,1.50
2018-09-15T15:18:17.483Z,1.30
2018-09-15T15:19:17.515Z,1.10
2018-09-15T15:20:17.725Z,1.40
2018-09-15T15:21:17.926Z,1.30
2018-09-15T15:22:18.104Z,1.40
2018-09-15T15:23:18.201Z,1.40
2018-09-15T15:24:18.357Z,1.30
2018-09-15T15:25:18.601Z,1.40
2018-09-15T15:26:18.848Z,1.40
2018-09-15T15:27:18.919Z,1.30
2018-09-15T15:28:19.075Z,1.20
2018-09-15T15:29:19.301Z,1.30
2018-09-15T15:30:19.475Z,1.30
2018-09-15T15:31:19.613Z,1.30
2018-09-15T15:32:19.786Z,1.30
2018-09-15T15:33:20.002Z,1.30
2018-09-15T15:34:20.066Z,1.30
2018-09-15T15:35:20.443Z,1.20
2018-09-15T15:36:20.401Z,1.30
2018-09-15T15:37:20.712Z,1.40
2018-09-15T15:38:20.799Z,1.70
2018-09-15T15:39:20.976Z,1.50
2018-09-15T15:40:21.140Z,1.40
2018-09-15T15:41:21.393Z,1.40
2018-09-15T15:42:21.553Z,1.40
2018-09-15T15:43:21.760Z,1.40
2018-09-15T15:44:21.947Z,1.30
2018-09-15T15:45:22.059Z,1.10
2018-09-15T15:46:22.176Z,1.10
2018-09-15T15:47:22.385Z,1.10
2018-09-15T15:48:22.559Z,1.20
2018-09-15T15:49:22.757Z,1.50
2018-09-15T15:50:22.892Z,1.30
2018-09-15T15:51:23.126Z,1.40
2018-09-15T15:52:23.259Z,1.20
2018-09-15T15:53:23.477Z,1.40
2018-09-15T15:54:23.609Z,1.10
2018-09-15T15:55:23.762Z,1.20
2018-09-15T15:56:23.981Z,1.30
2018-09-15T15:57:24.189Z,1.20
2018-09-15T15:58:24.449Z,1.10
2018-09-15T15:59:24.602Z,1.20
2018-09-15T16:01:26.671Z,1.30
2018-09-15T16:02:29.719Z,1.20
2018-09-15T16:03:25.288Z,1.10
2018-09-15T16:04:25.575Z,1.20
2018-09-15T16:05:25.597Z,1.20
2018-09-15T16:06:25.708Z,1.20
2018-09-15T16:07:25.960Z,1.20
2018-09-15T16:08:26.132Z,1.20
2018-09-15T16:09:26.365Z,1.30
2018-09-15T16:10:26.470Z,1.40
2018-09-15T16:11:26.876Z,1.30
2018-09-15T16:12:26.917Z,1.20
2018-09-15T16:13:27.096Z,1.30
2018-09-15T16:14:27.262Z,1.40
2018-09-15T16:15:27.587Z,1.30
2018-09-15T16:16:27.763Z,1.50
2018-09-15T16:17:27.898Z,1.30
2018-09-15T16:18:28.705Z,1.30
2018-09-15T16:19:30.291Z,1.50
2018-09-15T16:20:29.364Z,1.40
2018-09-15T16:21:28.853Z,1.00
2018-09-15T16:22:28.892Z,1.10
2018-09-15T16:23:29.355Z,1.40
2018-09-15T16:24:29.838Z,1.30
2018-09-15T16:25:29.466Z,1.40
2018-09-15T16:26:30.206Z,1.20
2018-09-15T16:27:29.845Z,1.10
2018-09-15T16:28:30.125Z,1.30
2018-09-15T16:29:30.373Z,1.30
2018-09-15T16:30:31.013Z,1.30
2018-09-15T16:31:31.569Z,1.30
2018-09-15T16:32:30.742Z,1.10
2018-09-15T16:33:32.087Z,1.40
2018-09-15T16:34:31.227Z,1.20
2018-09-15T16:35:31.457Z,1.30
2018-09-15T16:36:31.860Z,1.30
2018-09-15T16:37:31.714Z,1.30
2018-09-15T16:38:32.189Z,1.40
2018-09-15T16:39:32.869Z,1.40
2018-09-15T16:40:32.422Z,1.50
2018-09-15T16:41:34.196Z,1.40
2018-09-15T16:45:11.699Z,1.20
2018-09-15T16:47:11.811Z,1.30
2018-09-15T16:51:50.247Z,1.30
2018-09-15T16:52:48.337Z,1.30
2018-09-15T16:53:52.565Z,1.40
2018-09-15T16:54:53.976Z,1.40
2018-09-15T16:59:56.765Z,1.40
2018-09-15T17:03:39.174Z,1.80
2018-09-15T17:04:46.867Z,1.80
2018-09-15T17:05:39.817Z,1.60
2018-09-15T17:06:58.343Z,1.50
2018-09-15T17:08:03.803Z,1.50
2018-09-15T17:09:46.306Z,1.60
2018-09-15T17:10:45.740Z,1.40
2018-09-15T17:11:46.209Z,1.50
2018-09-15T17:12:41.643Z,1.40
2018-09-15T17:13:49.667Z,1.40
2018-09-15T17:14:41.063Z,1.50
2018-09-15T17:16:42.801Z,1.20
2018-09-15T17:17:42.966Z,1.40
2018-09-15T17:18:42.022Z,1.40
2018-09-15T17:20:40.157Z,1.30
2018-09-15T17:21:39.618Z,1.40
2018-09-15T17:22:39.716Z,1.30
2018-09-15T17:23:40.235Z,1.40
2018-09-15T17:24:40.037Z,1.60
2018-09-15T17:25:40.211Z,1.60
2018-09-15T17:26:40.337Z,1.70
2018-09-15T17:27:40.429Z,1.40
2018-09-15T17:28:40.535Z,1.40
2018-09-15T17:29:40.805Z,1.50
2018-09-15T17:30:41.055Z,1.60
2018-09-15T17:31:41.840Z,1.60
2018-09-15T17:32:41.334Z,1.60
2018-09-15T17:33:41.465Z,1.50
2018-09-15T17:34:41.669Z,1.40
2018-09-15T17:35:42.004Z,1.50
2018-09-15T17:36:42.140Z,1.40
2018-09-15T17:37:42.217Z,1.50
2018-09-15T17:38:42.424Z,1.50
2018-09-15T17:39:43.445Z,1.40
2018-09-15T17:40:43.265Z,1.50
2018-09-15T17:41:43.933Z,1.90
2018-09-15T17:42:43.686Z,2.00
2018-09-15T17:43:43.953Z,2.20
2018-09-15T17:44:43.894Z,2.20
2018-09-15T17:45:44.105Z,2.00
2018-09-15T17:46:44.280Z,2.50
2018-09-15T17:47:44.347Z,2.20
2018-09-15T17:48:44.546Z,1.80
2018-09-15T17:49:44.922Z,1.70
2018-09-15T17:50:44.762Z,1.50
2018-09-15T17:51:45.080Z,1.70
2018-09-15T17:52:45.280Z,1.70
2018-09-15T17:53:45.578Z,1.60
2018-09-15T17:54:45.759Z,1.60
2018-09-15T17:55:45.814Z,1.60
2018-09-15T17:56:47.810Z,1.60
2018-09-15T17:57:46.379Z,1.70
2018-09-15T17:58:46.944Z,1.60
2018-09-15T18:13:32.226Z,1.90
2018-09-15T18:14:32.672Z,1.70
2018-09-15T18:15:33.219Z,1.60
2018-09-15T18:16:32.979Z,1.70
2018-09-15T18:17:32.965Z,1.70
2018-09-15T18:18:34.781Z,1.90
2018-09-15T18:19:33.652Z,1.70
2018-09-15T18:22:15.121Z,1.80
2018-09-15T18:23:15.706Z,1.80
2018-09-15T18:26:17.470Z,2.30
2018-09-15T18:27:18.244Z,2.50
2018-09-15T18:28:18.697Z,3.00
2018-09-15T18:29:18.259Z,2.70
2018-09-15T18:30:18.852Z,3.00
2018-09-15T18:31:18.834Z,2.10
2018-09-15T18:32:18.650Z,2.20
2018-09-15T18:33:18.806Z,2.20
2018-09-15T18:34:23.132Z,2.30
2018-09-15T18:35:26.833Z,2.30
2018-09-15T18:36:20.052Z,2.00
2018-09-15T18:37:20.488Z,1.60
2018-09-15T18:38:20.294Z,1.90
2018-09-15T18:39:19.684Z,1.80
2018-09-15T18:40:18.638Z,1.70
2018-09-15T18:41:17.753Z,1.80
2018-09-15T18:42:17.782Z,2.00
2018-09-15T18:43:17.860Z,2.10
2018-09-15T18:44:18.040Z,2.40
2018-09-15T18:45:18.247Z,2.10
2018-09-15T18:46:18.485Z,2.40
2018-09-15T18:47:18.695Z,2.20
2018-09-15T18:48:18.777Z,2.40
2018-09-15T18:49:18.957Z,2.10
2018-09-15T18:50:19.183Z,2.20
2018-09-15T18:51:19.341Z,2.10
2018-09-15T18:52:19.634Z,1.90
2018-09-15T18:53:19.700Z,2.00
2018-09-15T18:54:19.860Z,1.90
2018-09-15T18:55:20.370Z,2.10
2018-09-15T18:56:20.232Z,2.50
2018-09-15T18:57:20.404Z,2.40
2018-09-15T18:58:20.654Z,3.10
2018-09-15T18:59:20.775Z,3.40
2018-09-15T19:00:21.062Z,3.30
2018-09-15T19:01:21.342Z,3.90
2018-09-15T19:02:21.378Z,4.00
2018-09-15T19:03:21.489Z,3.60
2018-09-15T19:04:21.808Z,3.60
2018-09-15T19:05:21.853Z,3.70
2018-09-15T19:06:22.005Z,3.90
2018-09-15T19:07:22.529Z,3.70
2018-09-15T19:08:22.381Z,4.20
2018-09-15T19:09:22.806Z,4.40
2018-09-15T19:10:22.730Z,3.60
2018-09-15T19:11:23.385Z,3.60
2018-09-15T19:12:23.448Z,3.50
2018-09-15T19:13:23.536Z,3.40
2018-09-15T19:14:23.555Z,3.10
2018-09-15T19:15:23.533Z,3.10
2018-09-15T19:16:23.962Z,2.80
2018-09-15T19:17:24.097Z,2.80
2018-09-15T19:18:24.285Z,3.00
2018-09-15T19:19:24.749Z,2.80
2018-09-15T19:20:24.703Z,2.60
2018-09-15T19:21:25.596Z,2.80
2018-09-15T19:22:25.348Z,2.60
2018-09-15T19:23:25.339Z,2.90
2018-09-15T19:24:25.770Z,2.80
2018-09-15T19:25:25.913Z,2.80
2018-09-15T19:26:26.795Z,2.70
2018-09-15T19:27:28.067Z,2.70
2018-09-15T19:28:27.018Z,3.10
2018-09-15T19:29:26.983Z,2.90
2018-09-15T19:30:26.916Z,2.90
2018-09-15T19:31:28.110Z,2.90
2018-09-15T19:32:27.554Z,2.50
2018-09-15T19:33:27.702Z,2.20
2018-09-15T19:34:27.902Z,2.50
2018-09-15T19:35:28.209Z,2.60
2018-09-15T19:36:28.258Z,3.20
2018-09-15T19:37:28.636Z,3.10
2018-09-15T19:38:29.989Z,3.20
2018-09-15T19:39:29.541Z,2.60
2018-09-15T19:40:29.382Z,2.70
2018-09-15T19:41:30.365Z,2.90
2018-09-15T19:42:29.574Z,2.30
2018-09-15T19:43:31.531Z,2.60
2018-09-15T19:44:29.420Z,2.50
2018-09-15T19:45:29.855Z,2.10
2018-09-15T19:46:29.766Z,2.00
2018-09-15T19:47:29.854Z,1.90
2018-09-15T19:48:29.939Z,2.20
2018-09-15T19:49:30.579Z,2.20
2018-09-15T19:50:30.193Z,2.10
2018-09-15T19:51:30.679Z,2.00
2018-09-15T19:52:31.800Z,2.00
2018-09-15T19:53:31.544Z,2.00
2018-09-15T19:55:31.883Z,2.20
2018-09-15T19:56:31.383Z,2.20
2018-09-15T19:57:32.552Z,2.10
2018-09-15T19:58:31.679Z,2.10
2018-09-15T19:59:33.684Z,1.90
2018-09-15T20:00:32.175Z,2.20
2018-09-15T20:01:32.266Z,2.10
2018-09-15T20:02:33.094Z,2.20
2018-09-15T20:03:37.826Z,2.10
2018-09-15T20:04:36.033Z,1.90
2018-09-15T20:05:32.799Z,2.30
2018-09-15T20:06:33.157Z,2.00
2018-09-15T20:07:33.317Z,2.20
2018-09-15T20:08:33.465Z,2.00
2018-09-15T20:09:33.649Z,2.20
2018-09-15T20:10:33.811Z,2.30
2018-09-15T20:11:33.894Z,2.30
2018-09-15T20:12:34.078Z,2.40
2018-09-15T20:13:34.277Z,2.10
2018-09-15T20:14:34.430Z,2.40
2018-09-15T20:15:34.777Z,2.20
2018-09-15T20:16:34.764Z,2.10
2018-09-15T20:17:35.022Z,2.20
2018-09-15T20:18:35.246Z,2.40
2018-09-15T20:19:35.434Z,2.40
2018-09-15T20:20:35.862Z,2.20
2018-09-15T20:21:35.843Z,2.20
2018-09-15T20:22:36.013Z,2.30
2018-09-15T20:23:36.286Z,2.50
2018-09-15T20:24:36.465Z,2.30
2018-09-15T20:25:37.025Z,2.40
2018-09-15T20:26:36.658Z,2.70
2018-09-15T20:27:36.900Z,2.80
2018-09-15T20:28:37.128Z,2.90